KMCN/MCN METAR and TAF weather

Enter ICAO airport designator
Station Type Date Time Source
KMCN METAR 2018/12/10 01:53 UTC NOAA

KMCN 100153Z AUTO 36006KT 10SM FEW010 BKN020 OVC049 03/02 A3000 RMK AO2 SLP160 T00330022


Station Type Date Time Source
KMCN Decoded METAR 2018/12/10 01:53 UTC NOAA

MIDDLE GEORGIA REGIONAL AIRPORT , GA, United States (KMCN) 32-41N 83-39W 109M
Dec 09, 2018 - 08:53 PM EST / 2018.12.10 0153 UTC
Wind: from the N (360 degrees) at 7 MPH (6 KT):0
Visibility: 10 mile(s):0
Sky conditions: overcast
Temperature: 37.9 F (3.3 C)
Dew Point: 36.0 F (2.2 C)
Relative Humidity: 92%
Pressure (altimeter): 30 in. Hg (1015 hPa)
ob: KMCN 100153Z AUTO 36006KT 10SM FEW010 BKN020 OVC049 03/02 A3000 RMK AO2 SLP160 T00330022
cycle: 2

Station Type Date Time Source
KMCN TAF 2018/12/09 18:34 UTC NOAA

TAF KMCN 091732Z 0918/1018 03010KT P6SM OVC009
FM092300 01008KT P6SM OVC006
FM100500 35004KT 5SM BR OVC005 PROB30 1010/1015 2SM -RA OVC003
FM101500 35004KT P6SM OVC007


Example: see airport list